CheckWX is a tool to help pilots better visualize weather data.  It is not intended as a substitute for an official pre-flight weather briefing.

08:11:56 UTC

MRPV TAF
Tobias Bolanos International Airport
San Jose, Costa Rica
MRPV 190500Z 1906/2006 10014KT CAVOK TX28/1918Z TN20/1910Z BECMG 1919/1921 29005KT

Mar-19@
06:00 UTC

Mar-19 @ 06:00 UTC

Mar-19@
19:00 UTC

Mar-19 @ 19:00 UTC

MRPV 190500Z 1906/2006 10014KT CAVOK TX28/1918Z TN20/1910Z
Wind
  • 100° at 14 KTS
Cloud Levels
  • No significant clouds

Mar-19@
19:00 UTC

Mar-19 @ 19:00 UTC

Mar-20@
06:00 UTC

Mar-20 @ 06:00 UTC

BECMG 1919/1921 29005KT

Becoming

Becoming Conditions expected by Tue, Mar 19, 2019 @ 21:00 UTC

Wind
  • 290° at 5 KTS
Cloud Levels
  • No significant clouds